CMA CGM Arkansas — 9HA3973 — position and weather

sailwx.info

Track history (hours):
 
Tides and Currents Weather Stations Pressure Air Temp Water Temp Dewpoint Dewpoint Depression Visibility Wind Speed Wind Dir Waves Ship Positions

CMA CGM Arkansas

Last reported at 2017-Oct-07 20:42 UTC. Time now 2017-Oct-19 18:27 UTC.
Position N 35°59' E 031°14'.
Warning: this ship's position is 11 days out of date.

Length 300 m; draft 13 m.

Type: Ship (hazmat cat A). MMSI: 256644000.

Date/timePositionNaut miles runAvg speedWind from/ knotsBaromVisibWave heightAir tempDewpointWater temp
2017-Oct-07 20:42N 35°59' E 031°14'616.9
2017-Oct-07 20:20N 35°59' E 031°06'616.7
2017-Oct-07 19:57N 35°59' E 030°58'2016.7
2017-Oct-07 18:44N 36°00' E 030°33'416.3
2017-Oct-07 18:30N 36°00' E 030°28'23515.5
2017-Oct-07 03:16N 37°28' E 025°56'414.8
2017-Oct-07 03:00N 37°31' E 025°52'815.9
2017-Oct-07 02:30N 37°39' E 025°52'12016.4
2017-Oct-06 19:09N 39°39' E 025°48'316.9
2017-Oct-06 18:59N 39°42' E 025°48'816.8
2017-Oct-06 18:31N 39°50' E 025°49'130 9.6
2017-Oct-06 05:00N 40°51' E 028°19'816.6
2017-Oct-06 04:30N 40°53' E 028°30'9 0.4
2017-Oct-05 07:59N 40°56' E 028°41'2 3.3
2017-Oct-05 07:24N 40°55' E 028°43'713.6
2017-Oct-05 06:52N 40°56' E 028°53'615.4
2017-Oct-05 06:30N 40°59' E 028°59'325 8.5
2017-Oct-03 16:25N 46°13' E 030°57'717.8
2017-Oct-03 16:00N 46°19' E 030°53'917.1
2017-Oct-03 15:30N 46°28' E 030°50'4 8.2
2017-Oct-03 15:00N 46°30' E 030°45'1 0.6
2017-Oct-03 13:45N 46°30' E 030°44'0 0.0
2017-Oct-03 12:55N 46°30' E 030°44'0 0.0
2017-Oct-03 12:31N 46°30' E 030°44'0 0.0
2017-Oct-03 12:00N 46°30' E 030°44'0 0.0
2017-Oct-03 11:09N 46°30' E 030°44'0 0.0
2017-Oct-03 11:00N 46°30' E 030°44'0 0.0
2017-Oct-03 09:57N 46°30' E 030°44'0 0.0
2017-Oct-03 09:27N 46°30' E 030°44'0 0.0
2017-Oct-03 08:52N 46°30' E 030°44'0 0.0
2017-Oct-03 08:27N 46°30' E 030°44'0 0.0
2017-Oct-03 08:01N 46°30' E 030°44'0 0.0
2017-Oct-03 07:30N 46°30' E 030°44'0 0.0
2017-Oct-03 07:01N 46°30' E 030°44'0 0.0
2017-Oct-03 06:30N 46°30' E 030°44'0 0.0
2017-Oct-03 05:54N 46°30' E 030°44'0 0.0
2017-Oct-03 05:24N 46°30' E 030°44'0 0.0
2017-Oct-03 04:57N 46°30' E 030°44'0 0.0
2017-Oct-03 04:31N 46°30' E 030°44'0 0.0
2017-Oct-03 03:48N 46°30' E 030°44'0 0.0
2017-Oct-03 03:27N 46°30' E 030°44'0 0.0
2017-Oct-03 02:57N 46°30' E 030°44'0 0.0
2017-Oct-03 02:28N 46°30' E 030°44'0 0.0
2017-Oct-03 02:00N 46°30' E 030°44'0 0.0
2017-Oct-03 01:27N 46°30' E 030°44'0 0.0
2017-Oct-03 01:00N 46°30' E 030°44'0 0.0
2017-Oct-03 00:24N 46°30' E 030°44'0 0.0
2017-Oct-03 00:00N 46°30' E 030°44'0 0.0
2017-Oct-02 23:24N 46°30' E 030°44'0 0.0
2017-Oct-02 22:58N 46°30' E 030°44'0 0.0
2017-Oct-02 22:31N 46°30' E 030°44'0 0.0
2017-Oct-02 22:00N 46°30' E 030°44'0 0.0
2017-Oct-02 21:27N 46°30' E 030°44'0 0.0
2017-Oct-02 20:57N 46°30' E 030°44'0 0.0
2017-Oct-02 20:31N 46°30' E 030°44'0 0.0
2017-Oct-02 20:00N 46°30' E 030°44'0 0.0
2017-Oct-02 19:27N 46°30' E 030°44'0 0.0
2017-Oct-02 19:00N 46°30' E 030°44'0 0.0
2017-Oct-02 18:30N 46°30' E 030°44'0 0.0
2017-Oct-02 17:51N 46°30' E 030°44'0 0.0
2017-Oct-02 17:24N 46°30' E 030°44'0 0.0
2017-Oct-02 17:00N 46°30' E 030°44'0 0.0
2017-Oct-02 16:30N 46°30' E 030°44'0 0.0
2017-Oct-02 16:00N 46°30' E 030°44'0 0.0
2017-Oct-02 15:21N 46°30' E 030°44'0 0.0
2017-Oct-02 14:54N 46°30' E 030°44'0 0.0
2017-Oct-02 14:30N 46°30' E 030°44'0 0.0
2017-Oct-02 13:58N 46°30' E 030°44'0 0.0
2017-Oct-02 13:18N 46°30' E 030°44'0 0.0
2017-Oct-02 13:00N 46°30' E 030°44'0 0.0
2017-Oct-02 12:30N 46°30' E 030°44'0 0.0
2017-Oct-02 11:36N 46°30' E 030°44'0 0.0
2017-Oct-02 11:24N 46°30' E 030°44'0 0.0
2017-Oct-02 10:57N 46°30' E 030°44'0 0.0
2017-Oct-02 10:27N 46°30' E 030°44'0 0.0
2017-Oct-02 09:57N 46°30' E 030°44'0 0.0
2017-Oct-02 09:31N 46°30' E 030°44'0 0.0
2017-Oct-02 08:57N 46°30' E 030°44'0 0.0
2017-Oct-02 08:18N 46°30' E 030°44'0 0.0
2017-Oct-02 07:57N 46°30' E 030°44'0 0.0
2017-Oct-02 07:27N 46°30' E 030°44'0 0.0
2017-Oct-02 07:00N 46°30' E 030°44'0 0.0
2017-Oct-02 06:25N 46°30' E 030°44'0 0.0
2017-Oct-02 05:52N 46°30' E 030°44'0 0.0
2017-Oct-02 05:27N 46°30' E 030°44'0 0.0
2017-Oct-02 05:00N 46°30' E 030°44'0 0.0
2017-Oct-02 04:30N 46°30' E 030°44'0 0.0
2017-Oct-02 03:33N 46°30' E 030°44'0 0.0
2017-Oct-02 02:57N 46°30' E 030°44'0 0.0
2017-Oct-02 02:30N 46°30' E 030°44'0 0.0
2017-Oct-02 01:42N 46°30' E 030°44'0 0.0
2017-Oct-02 01:21N 46°30' E 030°44'0 0.0
2017-Oct-02 00:57N 46°30' E 030°44'0 0.0
2017-Oct-02 00:31N 46°30' E 030°44'0 0.0
2017-Oct-02 00:00N 46°30' E 030°44'0 0.0
2017-Oct-01 23:15N 46°30' E 030°44'0 0.0
2017-Oct-01 22:48N 46°30' E 030°44'0 0.0
2017-Oct-01 22:18N 46°30' E 030°44'0 0.0
2017-Oct-01 22:00N 46°30' E 030°44'0 0.0
2017-Oct-01 21:31N 46°30' E 030°44'0 0.0
2017-Oct-01 20:51N 46°30' E 030°44'0 0.0
2017-Oct-01 20:30N 46°30' E 030°44'0 0.0
2017-Oct-01 20:01N 46°30' E 030°44'0 0.0
2017-Oct-01 19:30N 46°30' E 030°44'0 0.0
2017-Oct-01 18:48N 46°30' E 030°44'0 0.1
2017-Oct-01 18:31N 46°30' E 030°44'0 0.6
2017-Oct-01 18:00N 46°30' E 030°44'1 2.7
2017-Oct-01 17:31N 46°30' E 030°46'1 2.7
2017-Oct-01 17:01N 46°30' E 030°48'3 5.8
2017-Oct-01 16:30N 46°28' E 030°52'1 2.3
2017-Oct-01 16:00N 46°27' E 030°53'0 0.1
2017-Oct-01 15:29N 46°27' E 030°53'0 0.0
2017-Oct-01 15:01N 46°27' E 030°53'0 0.1
2017-Oct-01 14:30N 46°27' E 030°53'0 0.0
2017-Oct-01 13:58N 46°27' E 030°53'0 0.0
2017-Oct-01 13:30N 46°27' E 030°53'0 0.0
2017-Oct-01 13:00N 46°27' E 030°53'0 0.0
2017-Oct-01 12:31N 46°27' E 030°53'0 0.0
2017-Oct-01 12:00N 46°27' E 030°53'0 0.0
2017-Oct-01 11:31N 46°27' E 030°53'0 0.0
2017-Oct-01 11:00N 46°27' E 030°53'0 0.0
2017-Oct-01 10:30N 46°27' E 030°53'0 0.0
2017-Oct-01 10:00N 46°27' E 030°53'0 0.0
2017-Oct-01 09:31N 46°27' E 030°53'0 0.2
2017-Oct-01 09:00N 46°27' E 030°53'2 4.0
2017-Oct-01 08:30N 46°26' E 030°52'713.5
2017-Oct-01 08:00N 46°19' E 030°54'815.8
2017-Oct-01 07:30N 46°13' E 031°02'162 5.5
2017-Sep-30 01:59N 44°06' E 028°40'0 0.0
2017-Sep-30 01:29N 44°06' E 028°40'0 0.0
2017-Sep-30 00:59N 44°06' E 028°40'0 0.0
2017-Sep-30 00:29N 44°06' E 028°40'0 0.0
2017-Sep-29 23:59N 44°06' E 028°40'0 0.0
2017-Sep-29 23:29N 44°06' E 028°40'0 0.0
2017-Sep-29 22:56N 44°06' E 028°40'0 0.0
2017-Sep-29 22:29N 44°06' E 028°40'0 0.0
2017-Sep-29 21:59N 44°06' E 028°40'0 0.0
2017-Sep-29 21:29N 44°06' E 028°40'0 0.0
2017-Sep-29 20:59N 44°06' E 028°40'0 0.0
2017-Sep-29 20:29N 44°06' E 028°40'0 0.0
2017-Sep-29 19:59N 44°06' E 028°40'0 0.0
2017-Sep-29 19:29N 44°06' E 028°40'0 0.0
2017-Sep-29 18:59N 44°06' E 028°40'0 0.0
2017-Sep-29 18:27N 44°06' E 028°40'0 0.0
2017-Sep-29 18:00N 44°06' E 028°40'0 0.0
2017-Sep-29 17:30N 44°06' E 028°40'0 0.0
2017-Sep-29 16:59N 44°06' E 028°40'0 0.0
2017-Sep-29 16:30N 44°06' E 028°40'0 0.0
2017-Sep-29 15:59N 44°06' E 028°40'0 0.0
2017-Sep-29 15:29N 44°06' E 028°40'0 0.0
2017-Sep-29 14:58N 44°06' E 028°40'0 0.0
2017-Sep-29 14:28N 44°06' E 028°40'0 0.0
2017-Sep-29 13:58N 44°06' E 028°40'0 0.0
2017-Sep-29 13:28N 44°06' E 028°40'0 0.0
2017-Sep-29 12:58N 44°06' E 028°40'0 0.0
2017-Sep-29 12:30N 44°06' E 028°40'0 0.0
2017-Sep-29 12:00N 44°06' E 028°40'0 0.0
2017-Sep-29 11:30N 44°06' E 028°40'0 0.0
2017-Sep-29 11:00N 44°06' E 028°40'0 0.0
2017-Sep-29 10:30N 44°06' E 028°40'0 0.0
2017-Sep-29 10:00N 44°06' E 028°40'0 0.0
2017-Sep-29 09:30N 44°06' E 028°40'0 0.0
2017-Sep-29 09:00N 44°06' E 028°40'0 0.0
2017-Sep-29 08:30N 44°06' E 028°40'0 0.0
2017-Sep-29 08:00N 44°06' E 028°40'0 0.0
2017-Sep-29 07:30N 44°06' E 028°40'0 0.0
2017-Sep-29 07:00N 44°06' E 028°40'0 0.0
2017-Sep-29 06:30N 44°06' E 028°40'0 0.0
2017-Sep-29 06:00N 44°06' E 028°40'0 0.0
2017-Sep-29 05:30N 44°06' E 028°40'0 0.0
2017-Sep-29 05:00N 44°06' E 028°40'0 0.0
2017-Sep-29 04:30N 44°06' E 028°40'0 0.0
2017-Sep-29 04:00N 44°06' E 028°40'0 0.0
2017-Sep-29 03:30N 44°06' E 028°40'0 0.0
2017-Sep-29 03:00N 44°06' E 028°40'0 0.0
2017-Sep-29 02:30N 44°06' E 028°40'0 0.0
2017-Sep-29 02:00N 44°06' E 028°40'0 0.0
2017-Sep-29 01:30N 44°06' E 028°40'0 0.0
2017-Sep-29 01:00N 44°06' E 028°40'0 0.0
2017-Sep-29 00:30N 44°06' E 028°40'0 0.0
2017-Sep-29 00:00N 44°06' E 028°40'0 0.0
2017-Sep-28 23:30N 44°06' E 028°40'0 0.0
2017-Sep-28 23:00N 44°06' E 028°40'0 0.0
2017-Sep-28 22:30N 44°06' E 028°40'0 0.0
2017-Sep-28 22:00N 44°06' E 028°40'0 0.0
2017-Sep-28 21:30N 44°06' E 028°40'0 0.0
2017-Sep-28 21:00N 44°06' E 028°40'0 0.0
2017-Sep-28 20:30N 44°06' E 028°40'0 0.0
2017-Sep-28 20:00N 44°06' E 028°40'0 0.0
2017-Sep-28 19:30N 44°06' E 028°40'0 0.0
2017-Sep-28 19:00N 44°06' E 028°40'0 0.0
2017-Sep-28 18:30N 44°06' E 028°40'0 0.0
2017-Sep-28 18:00N 44°06' E 028°40'0 0.0
2017-Sep-28 17:30N 44°06' E 028°40'0 0.0
2017-Sep-28 17:00N 44°06' E 028°40'0 0.0
2017-Sep-28 16:30N 44°06' E 028°40'0 0.0
2017-Sep-28 16:00N 44°06' E 028°40'0 0.0
2017-Sep-28 15:30N 44°06' E 028°40'0 0.0
2017-Sep-28 15:00N 44°06' E 028°40'0 0.0
2017-Sep-28 14:30N 44°06' E 028°40'0 0.0
2017-Sep-28 13:57N 44°06' E 028°40'0 0.0
2017-Sep-28 13:30N 44°06' E 028°40'0 0.0
2017-Sep-28 13:00N 44°06' E 028°40'0 0.0
2017-Sep-28 12:30N 44°06' E 028°40'0 0.0
2017-Sep-28 12:00N 44°06' E 028°40'0 0.0
2017-Sep-28 11:30N 44°06' E 028°40'0 0.0
2017-Sep-28 11:00N 44°06' E 028°40'0 0.0
2017-Sep-28 10:30N 44°06' E 028°40'0 0.0
2017-Sep-28 10:00N 44°06' E 028°40'0 0.0
2017-Sep-28 09:24N 44°06' E 028°40'0 0.0
2017-Sep-28 09:00N 44°06' E 028°40'0 0.0
2017-Sep-28 08:30N 44°06' E 028°40'0 0.0
2017-Sep-28 08:00N 44°06' E 028°40'0 0.0
2017-Sep-28 07:30N 44°06' E 028°40'0 0.0
2017-Sep-28 07:00N 44°06' E 028°40'0 0.0
2017-Sep-28 06:30N 44°06' E 028°40'0 0.0
2017-Sep-28 06:00N 44°06' E 028°40'0 0.0
2017-Sep-28 05:30N 44°06' E 028°40'0 0.0
2017-Sep-28 05:00N 44°06' E 028°40'0 0.0
2017-Sep-28 04:30N 44°06' E 028°40'0 0.0
2017-Sep-28 04:00N 44°06' E 028°40'0 0.0
2017-Sep-28 03:30N 44°06' E 028°40'0 0.0
2017-Sep-28 03:00N 44°06' E 028°40'0 0.0
2017-Sep-28 02:30N 44°06' E 028°40'0 0.0
2017-Sep-28 02:00N 44°06' E 028°40'0 0.0
2017-Sep-28 01:30N 44°06' E 028°40'0 0.0
2017-Sep-28 01:00N 44°06' E 028°40'0 0.0
2017-Sep-28 00:30N 44°06' E 028°40'0 0.0
2017-Sep-28 00:00N 44°06' E 028°40'0 0.0
2017-Sep-27 23:30N 44°06' E 028°40'0 0.0
2017-Sep-27 23:00N 44°06' E 028°40'0 0.0
2017-Sep-27 22:30N 44°06' E 028°40'0 0.0
2017-Sep-27 22:00N 44°06' E 028°40'0 0.0
2017-Sep-27 21:30N 44°06' E 028°40'0 0.0
2017-Sep-27 21:00N 44°06' E 028°40'  
Track history (hours):
 
Tides and Currents Weather Stations Pressure Air Temp Water Temp Dewpoint Dewpoint Depression Visibility Wind Speed Wind Dir Waves Ship Positions

CMA CGM Arkansas

Last reported at 2017-Oct-07 20:42 UTC. Time now 2017-Oct-19 18:27 UTC.
Position N 35°59' E 031°14'.
Warning: this ship's position is 11 days out of date.

Length 300 m; draft 13 m.

Type: Ship (hazmat cat A). MMSI: 256644000.

Date/timePositionNaut miles runAvg speedWind from/ knotsBaromVisibWave heightAir tempDewpointWater temp
2017-Oct-07 20:42N 35°59' E 031°14'616.9
2017-Oct-07 20:20N 35°59' E 031°06'616.7
2017-Oct-07 19:57N 35°59' E 030°58'2016.7
2017-Oct-07 18:44N 36°00' E 030°33'416.3
2017-Oct-07 18:30N 36°00' E 030°28'23515.5
2017-Oct-07 03:16N 37°28' E 025°56'414.8
2017-Oct-07 03:00N 37°31' E 025°52'815.9
2017-Oct-07 02:30N 37°39' E 025°52'12016.4
2017-Oct-06 19:09N 39°39' E 025°48'316.9
2017-Oct-06 18:59N 39°42' E 025°48'816.8
2017-Oct-06 18:31N 39°50' E 025°49'130 9.6
2017-Oct-06 05:00N 40°51' E 028°19'816.6
2017-Oct-06 04:30N 40°53' E 028°30'9 0.4
2017-Oct-05 07:59N 40°56' E 028°41'2 3.3
2017-Oct-05 07:24N 40°55' E 028°43'713.6
2017-Oct-05 06:52N 40°56' E 028°53'615.4
2017-Oct-05 06:30N 40°59' E 028°59'325 8.5
2017-Oct-03 16:25N 46°13' E 030°57'717.8
2017-Oct-03 16:00N 46°19' E 030°53'917.1
2017-Oct-03 15:30N 46°28' E 030°50'4 8.2
2017-Oct-03 15:00N 46°30' E 030°45'1 0.6
2017-Oct-03 13:45N 46°30' E 030°44'0 0.0
2017-Oct-03 12:55N 46°30' E 030°44'0 0.0
2017-Oct-03 12:31N 46°30' E 030°44'0 0.0
2017-Oct-03 12:00N 46°30' E 030°44'0 0.0
2017-Oct-03 11:09N 46°30' E 030°44'0 0.0
2017-Oct-03 11:00N 46°30' E 030°44'0 0.0
2017-Oct-03 09:57N 46°30' E 030°44'0 0.0
2017-Oct-03 09:27N 46°30' E 030°44'0 0.0
2017-Oct-03 08:52N 46°30' E 030°44'0 0.0
2017-Oct-03 08:27N 46°30' E 030°44'0 0.0
2017-Oct-03 08:01N 46°30' E 030°44'0 0.0
2017-Oct-03 07:30N 46°30' E 030°44'0 0.0
2017-Oct-03 07:01N 46°30' E 030°44'0 0.0
2017-Oct-03 06:30N 46°30' E 030°44'0 0.0
2017-Oct-03 05:54N 46°30' E 030°44'0 0.0
2017-Oct-03 05:24N 46°30' E 030°44'0 0.0
2017-Oct-03 04:57N 46°30' E 030°44'0 0.0
2017-Oct-03 04:31N 46°30' E 030°44'0 0.0
2017-Oct-03 03:48N 46°30' E 030°44'0 0.0
2017-Oct-03 03:27N 46°30' E 030°44'0 0.0
2017-Oct-03 02:57N 46°30' E 030°44'0 0.0
2017-Oct-03 02:28N 46°30' E 030°44'0 0.0
2017-Oct-03 02:00N 46°30' E 030°44'0 0.0
2017-Oct-03 01:27N 46°30' E 030°44'0 0.0
2017-Oct-03 01:00N 46°30' E 030°44'0 0.0
2017-Oct-03 00:24N 46°30' E 030°44'0 0.0
2017-Oct-03 00:00N 46°30' E 030°44'0 0.0
2017-Oct-02 23:24N 46°30' E 030°44'0 0.0
2017-Oct-02 22:58N 46°30' E 030°44'0 0.0
2017-Oct-02 22:31N 46°30' E 030°44'0 0.0
2017-Oct-02 22:00N 46°30' E 030°44'0 0.0
2017-Oct-02 21:27N 46°30' E 030°44'0 0.0
2017-Oct-02 20:57N 46°30' E 030°44'0 0.0
2017-Oct-02 20:31N 46°30' E 030°44'0 0.0
2017-Oct-02 20:00N 46°30' E 030°44'0 0.0
2017-Oct-02 19:27N 46°30' E 030°44'0 0.0
2017-Oct-02 19:00N 46°30' E 030°44'0 0.0
2017-Oct-02 18:30N 46°30' E 030°44'0 0.0
2017-Oct-02 17:51N 46°30' E 030°44'0 0.0
2017-Oct-02 17:24N 46°30' E 030°44'0 0.0
2017-Oct-02 17:00N 46°30' E 030°44'0 0.0
2017-Oct-02 16:30N 46°30' E 030°44'0 0.0
2017-Oct-02 16:00N 46°30' E 030°44'0 0.0
2017-Oct-02 15:21N 46°30' E 030°44'0 0.0
2017-Oct-02 14:54N 46°30' E 030°44'0 0.0
2017-Oct-02 14:30N 46°30' E 030°44'0 0.0
2017-Oct-02 13:58N 46°30' E 030°44'0 0.0
2017-Oct-02 13:18N 46°30' E 030°44'0 0.0
2017-Oct-02 13:00N 46°30' E 030°44'0 0.0
2017-Oct-02 12:30N 46°30' E 030°44'0 0.0
2017-Oct-02 11:36N 46°30' E 030°44'0 0.0
2017-Oct-02 11:24N 46°30' E 030°44'0 0.0
2017-Oct-02 10:57N 46°30' E 030°44'0 0.0
2017-Oct-02 10:27N 46°30' E 030°44'0 0.0
2017-Oct-02 09:57N 46°30' E 030°44'0 0.0
2017-Oct-02 09:31N 46°30' E 030°44'0 0.0
2017-Oct-02 08:57N 46°30' E 030°44'0 0.0
2017-Oct-02 08:18N 46°30' E 030°44'0 0.0
2017-Oct-02 07:57N 46°30' E 030°44'0 0.0
2017-Oct-02 07:27N 46°30' E 030°44'0 0.0
2017-Oct-02 07:00N 46°30' E 030°44'0 0.0
2017-Oct-02 06:25N 46°30' E 030°44'0 0.0
2017-Oct-02 05:52N 46°30' E 030°44'0 0.0
2017-Oct-02 05:27N 46°30' E 030°44'0 0.0
2017-Oct-02 05:00N 46°30' E 030°44'0 0.0
2017-Oct-02 04:30N 46°30' E 030°44'0 0.0
2017-Oct-02 03:33N 46°30' E 030°44'0 0.0
2017-Oct-02 02:57N 46°30' E 030°44'0 0.0
2017-Oct-02 02:30N 46°30' E 030°44'0 0.0
2017-Oct-02 01:42N 46°30' E 030°44'0 0.0
2017-Oct-02 01:21N 46°30' E 030°44'0 0.0
2017-Oct-02 00:57N 46°30' E 030°44'0 0.0
2017-Oct-02 00:31N 46°30' E 030°44'0 0.0
2017-Oct-02 00:00N 46°30' E 030°44'0 0.0
2017-Oct-01 23:15N 46°30' E 030°44'0 0.0
2017-Oct-01 22:48N 46°30' E 030°44'0 0.0
2017-Oct-01 22:18N 46°30' E 030°44'0 0.0
2017-Oct-01 22:00N 46°30' E 030°44'0 0.0
2017-Oct-01 21:31N 46°30' E 030°44'0 0.0
2017-Oct-01 20:51N 46°30' E 030°44'0 0.0
2017-Oct-01 20:30N 46°30' E 030°44'0 0.0
2017-Oct-01 20:01N 46°30' E 030°44'0 0.0
2017-Oct-01 19:30N 46°30' E 030°44'0 0.0
2017-Oct-01 18:48N 46°30' E 030°44'0 0.1
2017-Oct-01 18:31N 46°30' E 030°44'0 0.6
2017-Oct-01 18:00N 46°30' E 030°44'1 2.7
2017-Oct-01 17:31N 46°30' E 030°46'1 2.7
2017-Oct-01 17:01N 46°30' E 030°48'3 5.8
2017-Oct-01 16:30N 46°28' E 030°52'1 2.3
2017-Oct-01 16:00N 46°27' E 030°53'0 0.1
2017-Oct-01 15:29N 46°27' E 030°53'0 0.0
2017-Oct-01 15:01N 46°27' E 030°53'0 0.1
2017-Oct-01 14:30N 46°27' E 030°53'0 0.0
2017-Oct-01 13:58N 46°27' E 030°53'0 0.0
2017-Oct-01 13:30N 46°27' E 030°53'0 0.0
2017-Oct-01 13:00N 46°27' E 030°53'0 0.0
2017-Oct-01 12:31N 46°27' E 030°53'0 0.0
2017-Oct-01 12:00N 46°27' E 030°53'0 0.0
2017-Oct-01 11:31N 46°27' E 030°53'0 0.0
2017-Oct-01 11:00N 46°27' E 030°53'0 0.0
2017-Oct-01 10:30N 46°27' E 030°53'0 0.0
2017-Oct-01 10:00N 46°27' E 030°53'0 0.0
2017-Oct-01 09:31N 46°27' E 030°53'0 0.2
2017-Oct-01 09:00N 46°27' E 030°53'2 4.0
2017-Oct-01 08:30N 46°26' E 030°52'713.5
2017-Oct-01 08:00N 46°19' E 030°54'815.8
2017-Oct-01 07:30N 46°13' E 031°02'162 5.5
2017-Sep-30 01:59N 44°06' E 028°40'0 0.0
2017-Sep-30 01:29N 44°06' E 028°40'0 0.0
2017-Sep-30 00:59N 44°06' E 028°40'0 0.0
2017-Sep-30 00:29N 44°06' E 028°40'0 0.0
2017-Sep-29 23:59N 44°06' E 028°40'0 0.0
2017-Sep-29 23:29N 44°06' E 028°40'0 0.0
2017-Sep-29 22:56N 44°06' E 028°40'0 0.0
2017-Sep-29 22:29N 44°06' E 028°40'0 0.0
2017-Sep-29 21:59N 44°06' E 028°40'0 0.0
2017-Sep-29 21:29N 44°06' E 028°40'0 0.0
2017-Sep-29 20:59N 44°06' E 028°40'0 0.0
2017-Sep-29 20:29N 44°06' E 028°40'0 0.0
2017-Sep-29 19:59N 44°06' E 028°40'0 0.0
2017-Sep-29 19:29N 44°06' E 028°40'0 0.0
2017-Sep-29 18:59N 44°06' E 028°40'0 0.0
2017-Sep-29 18:27N 44°06' E 028°40'0 0.0
2017-Sep-29 18:00N 44°06' E 028°40'0 0.0
2017-Sep-29 17:30N 44°06' E 028°40'0 0.0
2017-Sep-29 16:59N 44°06' E 028°40'0 0.0
2017-Sep-29 16:30N 44°06' E 028°40'0 0.0
2017-Sep-29 15:59N 44°06' E 028°40'0 0.0
2017-Sep-29 15:29N 44°06' E 028°40'0 0.0
2017-Sep-29 14:58N 44°06' E 028°40'0 0.0
2017-Sep-29 14:28N 44°06' E 028°40'0 0.0
2017-Sep-29 13:58N 44°06' E 028°40'0 0.0
2017-Sep-29 13:28N 44°06' E 028°40'0 0.0
2017-Sep-29 12:58N 44°06' E 028°40'0 0.0
2017-Sep-29 12:30N 44°06' E 028°40'0 0.0
2017-Sep-29 12:00N 44°06' E 028°40'0 0.0
2017-Sep-29 11:30N 44°06' E 028°40'0 0.0
2017-Sep-29 11:00N 44°06' E 028°40'0 0.0
2017-Sep-29 10:30N 44°06' E 028°40'0 0.0
2017-Sep-29 10:00N 44°06' E 028°40'0 0.0
2017-Sep-29 09:30N 44°06' E 028°40'0 0.0
2017-Sep-29 09:00N 44°06' E 028°40'0 0.0
2017-Sep-29 08:30N 44°06' E 028°40'0 0.0
2017-Sep-29 08:00N 44°06' E 028°40'0 0.0
2017-Sep-29 07:30N 44°06' E 028°40'0 0.0
2017-Sep-29 07:00N 44°06' E 028°40'0 0.0
2017-Sep-29 06:30N 44°06' E 028°40'0 0.0
2017-Sep-29 06:00N 44°06' E 028°40'0 0.0
2017-Sep-29 05:30N 44°06' E 028°40'0 0.0
2017-Sep-29 05:00N 44°06' E 028°40'0 0.0
2017-Sep-29 04:30N 44°06' E 028°40'0 0.0
2017-Sep-29 04:00N 44°06' E 028°40'0 0.0
2017-Sep-29 03:30N 44°06' E 028°40'0 0.0
2017-Sep-29 03:00N 44°06' E 028°40'0 0.0
2017-Sep-29 02:30N 44°06' E 028°40'0 0.0
2017-Sep-29 02:00N 44°06' E 028°40'0 0.0
2017-Sep-29 01:30N 44°06' E 028°40'0 0.0
2017-Sep-29 01:00N 44°06' E 028°40'0 0.0
2017-Sep-29 00:30N 44°06' E 028°40'0 0.0
2017-Sep-29 00:00N 44°06' E 028°40'0 0.0
2017-Sep-28 23:30N 44°06' E 028°40'0 0.0
2017-Sep-28 23:00N 44°06' E 028°40'0 0.0
2017-Sep-28 22:30N 44°06' E 028°40'0 0.0
2017-Sep-28 22:00N 44°06' E 028°40'0 0.0
2017-Sep-28 21:30N 44°06' E 028°40'0 0.0
2017-Sep-28 21:00N 44°06' E 028°40'0 0.0
2017-Sep-28 20:30N 44°06' E 028°40'0 0.0
2017-Sep-28 20:00N 44°06' E 028°40'0 0.0
2017-Sep-28 19:30N 44°06' E 028°40'0 0.0
2017-Sep-28 19:00N 44°06' E 028°40'0 0.0
2017-Sep-28 18:30N 44°06' E 028°40'0 0.0
2017-Sep-28 18:00N 44°06' E 028°40'0 0.0
2017-Sep-28 17:30N 44°06' E 028°40'0 0.0
2017-Sep-28 17:00N 44°06' E 028°40'0 0.0
2017-Sep-28 16:30N 44°06' E 028°40'0 0.0
2017-Sep-28 16:00N 44°06' E 028°40'0 0.0
2017-Sep-28 15:30N 44°06' E 028°40'0 0.0
2017-Sep-28 15:00N 44°06' E 028°40'0 0.0
2017-Sep-28 14:30N 44°06' E 028°40'0 0.0
2017-Sep-28 13:57N 44°06' E 028°40'0 0.0
2017-Sep-28 13:30N 44°06' E 028°40'0 0.0
2017-Sep-28 13:00N 44°06' E 028°40'0 0.0
2017-Sep-28 12:30N 44°06' E 028°40'0 0.0
2017-Sep-28 12:00N 44°06' E 028°40'0 0.0
2017-Sep-28 11:30N 44°06' E 028°40'0 0.0
2017-Sep-28 11:00N 44°06' E 028°40'0 0.0
2017-Sep-28 10:30N 44°06' E 028°40'0 0.0
2017-Sep-28 10:00N 44°06' E 028°40'0 0.0
2017-Sep-28 09:24N 44°06' E 028°40'0 0.0
2017-Sep-28 09:00N 44°06' E 028°40'0 0.0
2017-Sep-28 08:30N 44°06' E 028°40'0 0.0
2017-Sep-28 08:00N 44°06' E 028°40'0 0.0
2017-Sep-28 07:30N 44°06' E 028°40'0 0.0
2017-Sep-28 07:00N 44°06' E 028°40'0 0.0
2017-Sep-28 06:30N 44°06' E 028°40'0 0.0
2017-Sep-28 06:00N 44°06' E 028°40'0 0.0
2017-Sep-28 05:30N 44°06' E 028°40'0 0.0
2017-Sep-28 05:00N 44°06' E 028°40'0 0.0
2017-Sep-28 04:30N 44°06' E 028°40'0 0.0
2017-Sep-28 04:00N 44°06' E 028°40'0 0.0
2017-Sep-28 03:30N 44°06' E 028°40'0 0.0
2017-Sep-28 03:00N 44°06' E 028°40'0 0.0
2017-Sep-28 02:30N 44°06' E 028°40'0 0.0
2017-Sep-28 02:00N 44°06' E 028°40'0 0.0
2017-Sep-28 01:30N 44°06' E 028°40'0 0.0
2017-Sep-28 01:00N 44°06' E 028°40'0 0.0
2017-Sep-28 00:30N 44°06' E 028°40'0 0.0
2017-Sep-28 00:00N 44°06' E 028°40'0 0.0
2017-Sep-27 23:30N 44°06' E 028°40'0 0.0
2017-Sep-27 23:00N 44°06' E 028°40'0 0.0
2017-Sep-27 22:30N 44°06' E 028°40'0 0.0
2017-Sep-27 22:00N 44°06' E 028°40'0 0.0
2017-Sep-27 21:30N 44°06' E 028°40'0 0.0
2017-Sep-27 21:00N 44°06' E 028°40'  

Dump ship's entire track history